sensor_id;sensor_type;location;lat;lon;timestamp;P1;durP1;ratioP1;P2;durP2;ratioP2
23078;SDS011;11707;50.830;4.364;2024-03-07T00:00:05;15.60;;;10.65;;
23078;SDS011;11707;50.830;4.364;2024-03-07T00:02:48;17.02;;;12.52;;
23078;SDS011;11707;50.830;4.364;2024-03-07T00:05:19;23.30;;;13.15;;
23078;SDS011;11707;50.830;4.364;2024-03-07T00:07:49;21.40;;;12.98;;
23078;SDS011;11707;50.830;4.364;2024-03-07T00:10:15;20.90;;;14.65;;
23078;SDS011;11707;50.830;4.364;2024-03-07T00:12:41;22.85;;;14.35;;
23078;SDS011;11707;50.830;4.364;2024-03-07T00:15:11;28.95;;;14.88;;
23078;SDS011;11707;50.830;4.364;2024-03-07T00:17:38;24.15;;;13.98;;
23078;SDS011;11707;50.830;4.364;2024-03-07T00:20:04;21.63;;;13.63;;
23078;SDS011;11707;50.830;4.364;2024-03-07T00:22:34;23.20;;;16.73;;
23078;SDS011;11707;50.830;4.364;2024-03-07T00:25:01;23.27;;;15.20;;
23078;SDS011;11707;50.830;4.364;2024-03-07T00:27:29;28.13;;;17.80;;
23078;SDS011;11707;50.830;4.364;2024-03-07T00:29:55;29.17;;;18.80;;
23078;SDS011;11707;50.830;4.364;2024-03-07T00:32:22;27.10;;;18.27;;
23078;SDS011;11707;50.830;4.364;2024-03-07T00:34:48;28.08;;;18.80;;
23078;SDS011;11707;50.830;4.364;2024-03-07T00:37:15;31.77;;;18.95;;
23078;SDS011;11707;50.830;4.364;2024-03-07T00:39:43;35.35;;;19.38;;
23078;SDS011;11707;50.830;4.364;2024-03-07T00:42:09;30.65;;;20.15;;
23078;SDS011;11707;50.830;4.364;2024-03-07T00:44:35;35.85;;;23.05;;
23078;SDS011;11707;50.830;4.364;2024-03-07T00:47:01;37.30;;;22.38;;
23078;SDS011;11707;50.830;4.364;2024-03-07T00:49:27;39.83;;;23.42;;
23078;SDS011;11707;50.830;4.364;2024-03-07T00:51:54;39.55;;;23.13;;
23078;SDS011;11707;50.830;4.364;2024-03-07T00:54:23;39.45;;;23.92;;
23078;SDS011;11707;50.830;4.364;2024-03-07T00:56:48;43.17;;;23.92;;
23078;SDS011;11707;50.830;4.364;2024-03-07T00:59:17;37.83;;;23.65;;
23078;SDS011;11707;50.830;4.364;2024-03-07T01:01:45;36.63;;;23.83;;
23078;SDS011;11707;50.830;4.364;2024-03-07T01:04:11;35.80;;;22.98;;
23078;SDS011;11707;50.830;4.364;2024-03-07T01:06:37;37.20;;;24.50;;
23078;SDS011;11707;50.830;4.364;2024-03-07T01:09:03;35.30;;;23.20;;
23078;SDS011;11707;50.830;4.364;2024-03-07T01:11:31;36.15;;;24.08;;
23078;SDS011;11707;50.830;4.364;2024-03-07T01:13:57;38.05;;;24.63;;
23078;SDS011;11707;50.830;4.364;2024-03-07T01:16:22;39.90;;;25.20;;
23078;SDS011;11707;50.830;4.364;2024-03-07T01:18:48;43.33;;;26.33;;
23078;SDS011;11707;50.830;4.364;2024-03-07T01:21:14;42.10;;;26.30;;
23078;SDS011;11707;50.830;4.364;2024-03-07T01:23:42;42.53;;;26.15;;
23078;SDS011;11707;50.830;4.364;2024-03-07T01:26:08;41.90;;;25.33;;
23078;SDS011;11707;50.830;4.364;2024-03-07T01:28:33;38.80;;;25.05;;
23078;SDS011;11707;50.830;4.364;2024-03-07T01:30:59;44.70;;;26.08;;
23078;SDS011;11707;50.830;4.364;2024-03-07T01:33:25;46.65;;;27.40;;
23078;SDS011;11707;50.830;4.364;2024-03-07T01:35:54;48.10;;;28.35;;
23078;SDS011;11707;50.830;4.364;2024-03-07T01:38:20;43.75;;;28.30;;
23078;SDS011;11707;50.830;4.364;2024-03-07T01:40:46;44.70;;;28.13;;
23078;SDS011;11707;50.830;4.364;2024-03-07T01:43:11;46.25;;;28.38;;
23078;SDS011;11707;50.830;4.364;2024-03-07T01:45:37;42.95;;;28.10;;
23078;SDS011;11707;50.830;4.364;2024-03-07T01:48:07;49.15;;;29.88;;
23078;SDS011;11707;50.830;4.364;2024-03-07T01:50:35;48.20;;;29.63;;
23078;SDS011;11707;50.830;4.364;2024-03-07T01:53:07;50.10;;;31.08;;
23078;SDS011;11707;50.830;4.364;2024-03-07T01:55:36;50.05;;;30.17;;
23078;SDS011;11707;50.830;4.364;2024-03-07T01:58:03;51.65;;;31.58;;
23078;SDS011;11707;50.830;4.364;2024-03-07T02:00:32;51.92;;;31.45;;
23078;SDS011;11707;50.830;4.364;2024-03-07T02:03:00;52.17;;;30.83;;
23078;SDS011;11707;50.830;4.364;2024-03-07T02:05:26;52.83;;;31.08;;
23078;SDS011;11707;50.830;4.364;2024-03-07T02:07:52;53.13;;;32.30;;
23078;SDS011;11707;50.830;4.364;2024-03-07T02:10:20;60.10;;;33.63;;
23078;SDS011;11707;50.830;4.364;2024-03-07T02:12:46;58.70;;;33.80;;
23078;SDS011;11707;50.830;4.364;2024-03-07T02:15:11;53.35;;;33.58;;
23078;SDS011;11707;50.830;4.364;2024-03-07T02:17:39;57.80;;;32.55;;
23078;SDS011;11707;50.830;4.364;2024-03-07T02:20:05;51.55;;;34.40;;
23078;SDS011;11707;50.830;4.364;2024-03-07T02:22:33;53.97;;;33.70;;
23078;SDS011;11707;50.830;4.364;2024-03-07T02:24:59;56.38;;;34.95;;
23078;SDS011;11707;50.830;4.364;2024-03-07T02:27:24;54.15;;;34.53;;
23078;SDS011;11707;50.830;4.364;2024-03-07T02:29:50;52.05;;;32.80;;
23078;SDS011;11707;50.830;4.364;2024-03-07T02:32:16;58.53;;;34.58;;
23078;SDS011;11707;50.830;4.364;2024-03-07T02:34:42;52.47;;;34.25;;
23078;SDS011;11707;50.830;4.364;2024-03-07T02:37:11;56.78;;;33.60;;
23078;SDS011;11707;50.830;4.364;2024-03-07T02:39:37;56.53;;;35.05;;
23078;SDS011;11707;50.830;4.364;2024-03-07T02:42:05;59.30;;;34.35;;
23078;SDS011;11707;50.830;4.364;2024-03-07T02:44:31;52.63;;;33.17;;
23078;SDS011;11707;50.830;4.364;2024-03-07T02:46:57;51.88;;;33.55;;
23078;SDS011;11707;50.830;4.364;2024-03-07T02:49:26;54.72;;;34.10;;
23078;SDS011;11707;50.830;4.364;2024-03-07T02:51:54;55.95;;;34.30;;
23078;SDS011;11707;50.830;4.364;2024-03-07T02:54:20;67.00;;;36.55;;
23078;SDS011;11707;50.830;4.364;2024-03-07T02:56:46;58.33;;;36.30;;
23078;SDS011;11707;50.830;4.364;2024-03-07T02:59:14;59.55;;;35.97;;
23078;SDS011;11707;50.830;4.364;2024-03-07T03:01:44;55.17;;;35.65;;
23078;SDS011;11707;50.830;4.364;2024-03-07T03:04:10;60.42;;;36.22;;
23078;SDS011;11707;50.830;4.364;2024-03-07T03:06:36;65.43;;;37.90;;
23078;SDS011;11707;50.830;4.364;2024-03-07T03:09:01;65.03;;;39.75;;
23078;SDS011;11707;50.830;4.364;2024-03-07T03:11:29;61.88;;;38.22;;
23078;SDS011;11707;50.830;4.364;2024-03-07T03:13:55;59.38;;;36.10;;
23078;SDS011;11707;50.830;4.364;2024-03-07T03:16:21;59.85;;;36.15;;
23078;SDS011;11707;50.830;4.364;2024-03-07T03:18:49;62.63;;;38.00;;
23078;SDS011;11707;50.830;4.364;2024-03-07T03:21:15;58.35;;;36.05;;
23078;SDS011;11707;50.830;4.364;2024-03-07T03:23:41;64.03;;;38.00;;
23078;SDS011;11707;50.830;4.364;2024-03-07T03:26:06;61.80;;;37.45;;
23078;SDS011;11707;50.830;4.364;2024-03-07T03:28:32;63.95;;;38.42;;
23078;SDS011;11707;50.830;4.364;2024-03-07T03:30:58;64.07;;;37.58;;
23078;SDS011;11707;50.830;4.364;2024-03-07T03:33:23;63.90;;;38.60;;
23078;SDS011;11707;50.830;4.364;2024-03-07T03:35:50;59.25;;;37.42;;
23078;SDS011;11707;50.830;4.364;2024-03-07T03:38:15;65.90;;;38.35;;
23078;SDS011;11707;50.830;4.364;2024-03-07T03:40:43;66.07;;;38.58;;
23078;SDS011;11707;50.830;4.364;2024-03-07T03:43:09;64.95;;;39.35;;
23078;SDS011;11707;50.830;4.364;2024-03-07T03:45:35;66.55;;;39.97;;
23078;SDS011;11707;50.830;4.364;2024-03-07T03:48:03;67.65;;;40.75;;
23078;SDS011;11707;50.830;4.364;2024-03-07T03:50:32;64.97;;;39.67;;
23078;SDS011;11707;50.830;4.364;2024-03-07T03:52:58;69.07;;;40.30;;
23078;SDS011;11707;50.830;4.364;2024-03-07T03:55:23;67.05;;;41.42;;
23078;SDS011;11707;50.830;4.364;2024-03-07T03:57:51;71.82;;;40.03;;
23078;SDS011;11707;50.830;4.364;2024-03-07T04:00:18;67.22;;;41.38;;
23078;SDS011;11707;50.830;4.364;2024-03-07T04:02:47;71.03;;;40.88;;
23078;SDS011;11707;50.830;4.364;2024-03-07T04:05:14;72.20;;;43.22;;
23078;SDS011;11707;50.830;4.364;2024-03-07T04:07:44;78.72;;;42.67;;
23078;SDS011;11707;50.830;4.364;2024-03-07T04:10:11;73.30;;;43.10;;
23078;SDS011;11707;50.830;4.364;2024-03-07T04:12:37;74.22;;;43.25;;
23078;SDS011;11707;50.830;4.364;2024-03-07T04:15:08;80.22;;;44.72;;
23078;SDS011;11707;50.830;4.364;2024-03-07T04:20:13;75.18;;;42.05;;
23078;SDS011;11707;50.830;4.364;2024-03-07T04:22:41;73.07;;;42.22;;
23078;SDS011;11707;50.830;4.364;2024-03-07T04:25:07;76.65;;;43.72;;
23078;SDS011;11707;50.830;4.364;2024-03-07T04:27:35;81.65;;;43.45;;
23078;SDS011;11707;50.830;4.364;2024-03-07T04:30:07;79.53;;;43.53;;
23078;SDS011;11707;50.830;4.364;2024-03-07T04:32:39;76.85;;;44.47;;
23078;SDS011;11707;50.830;4.364;2024-03-07T04:35:07;81.20;;;44.80;;
23078;SDS011;11707;50.830;4.364;2024-03-07T04:37:37;80.18;;;43.40;;
23078;SDS011;11707;50.830;4.364;2024-03-07T04:40:06;81.20;;;46.45;;
23078;SDS011;11707;50.830;4.364;2024-03-07T04:42:42;75.97;;;43.42;;
23078;SDS011;11707;50.830;4.364;2024-03-07T04:45:10;83.65;;;46.60;;
23078;SDS011;11707;50.830;4.364;2024-03-07T04:47:38;88.45;;;47.70;;
23078;SDS011;11707;50.830;4.364;2024-03-07T04:50:06;86.60;;;45.63;;
23078;SDS011;11707;50.830;4.364;2024-03-07T04:52:35;84.97;;;47.92;;
23078;SDS011;11707;50.830;4.364;2024-03-07T04:55:08;79.00;;;45.00;;
23078;SDS011;11707;50.830;4.364;2024-03-07T04:57:38;81.97;;;46.63;;
23078;SDS011;11707;50.830;4.364;2024-03-07T05:00:08;88.18;;;47.88;;
23078;SDS011;11707;50.830;4.364;2024-03-07T05:02:39;87.80;;;47.63;;
23078;SDS011;11707;50.830;4.364;2024-03-07T05:05:05;83.93;;;46.30;;
23078;SDS011;11707;50.830;4.364;2024-03-07T05:07:31;85.10;;;46.17;;
23078;SDS011;11707;50.830;4.364;2024-03-07T05:09:57;86.13;;;46.92;;
23078;SDS011;11707;50.830;4.364;2024-03-07T05:12:23;80.10;;;46.47;;
23078;SDS011;11707;50.830;4.364;2024-03-07T05:14:48;94.32;;;48.50;;
23078;SDS011;11707;50.830;4.364;2024-03-07T05:17:14;91.68;;;47.47;;
23078;SDS011;11707;50.830;4.364;2024-03-07T05:19:40;94.63;;;49.95;;
23078;SDS011;11707;50.830;4.364;2024-03-07T05:22:05;91.95;;;48.55;;
23078;SDS011;11707;50.830;4.364;2024-03-07T05:24:31;105.85;;;52.08;;
23078;SDS011;11707;50.830;4.364;2024-03-07T05:26:58;95.13;;;50.20;;
23078;SDS011;11707;50.830;4.364;2024-03-07T05:29:24;103.90;;;51.53;;
23078;SDS011;11707;50.830;4.364;2024-03-07T05:31:50;111.88;;;54.38;;
23078;SDS011;11707;50.830;4.364;2024-03-07T05:34:16;114.70;;;55.08;;
23078;SDS011;11707;50.830;4.364;2024-03-07T05:36:46;121.50;;;57.17;;
23078;SDS011;11707;50.830;4.364;2024-03-07T05:39:15;112.25;;;53.20;;
23078;SDS011;11707;50.830;4.364;2024-03-07T05:41:43;119.03;;;54.17;;
23078;SDS011;11707;50.830;4.364;2024-03-07T05:44:13;116.13;;;54.92;;
23078;SDS011;11707;50.830;4.364;2024-03-07T05:46:40;110.93;;;53.22;;
23078;SDS011;11707;50.830;4.364;2024-03-07T05:49:13;124.15;;;54.53;;
23078;SDS011;11707;50.830;4.364;2024-03-07T05:51:39;123.03;;;53.83;;
23078;SDS011;11707;50.830;4.364;2024-03-07T05:54:10;128.15;;;56.92;;
23078;SDS011;11707;50.830;4.364;2024-03-07T05:56:40;120.65;;;54.58;;
23078;SDS011;11707;50.830;4.364;2024-03-07T05:59:06;115.18;;;54.92;;
23078;SDS011;11707;50.830;4.364;2024-03-07T06:01:36;126.28;;;57.60;;
23078;SDS011;11707;50.830;4.364;2024-03-07T06:04:02;150.40;;;57.63;;
23078;SDS011;11707;50.830;4.364;2024-03-07T06:06:32;124.78;;;55.60;;
23078;SDS011;11707;50.830;4.364;2024-03-07T06:09:00;133.88;;;57.70;;
23078;SDS011;11707;50.830;4.364;2024-03-07T06:11:28;129.95;;;57.53;;
23078;SDS011;11707;50.830;4.364;2024-03-07T06:13:54;122.18;;;55.22;;
23078;SDS011;11707;50.830;4.364;2024-03-07T06:16:20;122.70;;;57.40;;
23078;SDS011;11707;50.830;4.364;2024-03-07T06:18:48;127.70;;;55.90;;
23078;SDS011;11707;50.830;4.364;2024-03-07T06:21:13;130.20;;;58.58;;
23078;SDS011;11707;50.830;4.364;2024-03-07T06:23:39;127.28;;;55.63;;
23078;SDS011;11707;50.830;4.364;2024-03-07T06:26:05;125.82;;;56.20;;
23078;SDS011;11707;50.830;4.364;2024-03-07T06:28:40;122.65;;;55.03;;
23078;SDS011;11707;50.830;4.364;2024-03-07T06:31:07;124.45;;;55.38;;
23078;SDS011;11707;50.830;4.364;2024-03-07T06:33:33;122.63;;;55.53;;
23078;SDS011;11707;50.830;4.364;2024-03-07T06:35:59;133.25;;;57.25;;
23078;SDS011;11707;50.830;4.364;2024-03-07T06:38:26;122.22;;;55.10;;
23078;SDS011;11707;50.830;4.364;2024-03-07T06:40:52;120.63;;;54.78;;
23078;SDS011;11707;50.830;4.364;2024-03-07T06:43:18;123.35;;;54.15;;
23078;SDS011;11707;50.830;4.364;2024-03-07T06:45:43;127.47;;;56.67;;
23078;SDS011;11707;50.830;4.364;2024-03-07T06:48:11;129.02;;;56.83;;
23078;SDS011;11707;50.830;4.364;2024-03-07T06:50:39;133.52;;;52.88;;
23078;SDS011;11707;50.830;4.364;2024-03-07T06:53:05;130.45;;;54.72;;
23078;SDS011;11707;50.830;4.364;2024-03-07T06:55:32;129.57;;;58.90;;
23078;SDS011;11707;50.830;4.364;2024-03-07T06:57:59;123.00;;;55.05;;
23078;SDS011;11707;50.830;4.364;2024-03-07T07:00:26;126.00;;;55.70;;
23078;SDS011;11707;50.830;4.364;2024-03-07T07:02:51;120.68;;;52.35;;
23078;SDS011;11707;50.830;4.364;2024-03-07T07:05:19;110.03;;;53.00;;
23078;SDS011;11707;50.830;4.364;2024-03-07T07:07:48;129.30;;;54.30;;
23078;SDS011;11707;50.830;4.364;2024-03-07T07:10:14;113.55;;;52.08;;
23078;SDS011;11707;50.830;4.364;2024-03-07T07:12:44;118.65;;;53.72;;
23078;SDS011;11707;50.830;4.364;2024-03-07T07:15:10;110.75;;;51.83;;
23078;SDS011;11707;50.830;4.364;2024-03-07T07:17:37;112.57;;;53.03;;
23078;SDS011;11707;50.830;4.364;2024-03-07T07:20:03;112.63;;;51.22;;
23078;SDS011;11707;50.830;4.364;2024-03-07T07:22:38;111.28;;;51.80;;
23078;SDS011;11707;50.830;4.364;2024-03-07T07:25:04;118.05;;;55.15;;
23078;SDS011;11707;50.830;4.364;2024-03-07T07:27:34;110.22;;;53.45;;
23078;SDS011;11707;50.830;4.364;2024-03-07T07:30:02;114.25;;;50.95;;
23078;SDS011;11707;50.830;4.364;2024-03-07T07:32:28;112.25;;;52.83;;
23078;SDS011;11707;50.830;4.364;2024-03-07T07:34:59;101.20;;;50.90;;
23078;SDS011;11707;50.830;4.364;2024-03-07T07:37:25;100.55;;;49.78;;
23078;SDS011;11707;50.830;4.364;2024-03-07T07:39:51;97.72;;;47.80;;
23078;SDS011;11707;50.830;4.364;2024-03-07T07:42:17;100.40;;;48.88;;
23078;SDS011;11707;50.830;4.364;2024-03-07T07:44:45;101.25;;;47.92;;
23078;SDS011;11707;50.830;4.364;2024-03-07T07:47:13;98.88;;;47.70;;
23078;SDS011;11707;50.830;4.364;2024-03-07T07:49:39;92.13;;;44.75;;
23078;SDS011;11707;50.830;4.364;2024-03-07T07:52:05;102.47;;;47.15;;
23078;SDS011;11707;50.830;4.364;2024-03-07T07:54:31;100.47;;;49.45;;
23078;SDS011;11707;50.830;4.364;2024-03-07T07:56:57;93.40;;;45.60;;
23078;SDS011;11707;50.830;4.364;2024-03-07T07:59:23;92.88;;;46.75;;
23078;SDS011;11707;50.830;4.364;2024-03-07T08:01:51;101.07;;;46.53;;
23078;SDS011;11707;50.830;4.364;2024-03-07T08:04:20;94.95;;;46.10;;
23078;SDS011;11707;50.830;4.364;2024-03-07T08:06:54;90.10;;;44.83;;
23078;SDS011;11707;50.830;4.364;2024-03-07T08:09:19;91.72;;;45.50;;
23078;SDS011;11707;50.830;4.364;2024-03-07T08:11:47;93.30;;;43.08;;
23078;SDS011;11707;50.830;4.364;2024-03-07T08:14:17;91.43;;;43.63;;
23078;SDS011;11707;50.830;4.364;2024-03-07T08:16:43;90.78;;;42.60;;
23078;SDS011;11707;50.830;4.364;2024-03-07T08:19:13;96.25;;;44.80;;
23078;SDS011;11707;50.830;4.364;2024-03-07T08:21:39;93.00;;;44.33;;
23078;SDS011;11707;50.830;4.364;2024-03-07T08:24:06;89.78;;;43.90;;
23078;SDS011;11707;50.830;4.364;2024-03-07T08:26:36;84.72;;;42.75;;
23078;SDS011;11707;50.830;4.364;2024-03-07T08:29:02;93.03;;;42.33;;
23078;SDS011;11707;50.830;4.364;2024-03-07T08:31:28;88.65;;;43.15;;
23078;SDS011;11707;50.830;4.364;2024-03-07T08:33:53;78.40;;;39.97;;
23078;SDS011;11707;50.830;4.364;2024-03-07T08:36:19;88.93;;;44.22;;
23078;SDS011;11707;50.830;4.364;2024-03-07T08:38:45;84.18;;;41.72;;
23078;SDS011;11707;50.830;4.364;2024-03-07T08:41:11;79.93;;;40.47;;
23078;SDS011;11707;50.830;4.364;2024-03-07T08:43:37;82.25;;;40.20;;
23078;SDS011;11707;50.830;4.364;2024-03-07T08:46:03;88.55;;;44.92;;
23078;SDS011;11707;50.830;4.364;2024-03-07T08:48:28;85.90;;;41.83;;
23078;SDS011;11707;50.830;4.364;2024-03-07T08:50:54;81.53;;;40.75;;
23078;SDS011;11707;50.830;4.364;2024-03-07T08:53:22;86.55;;;41.33;;
23078;SDS011;11707;50.830;4.364;2024-03-07T08:55:48;93.25;;;41.72;;
23078;SDS011;11707;50.830;4.364;2024-03-07T08:58:14;80.15;;;41.53;;
23078;SDS011;11707;50.830;4.364;2024-03-07T09:00:39;82.85;;;42.63;;
23078;SDS011;11707;50.830;4.364;2024-03-07T09:03:10;86.90;;;42.33;;
23078;SDS011;11707;50.830;4.364;2024-03-07T09:05:35;84.40;;;43.60;;
23078;SDS011;11707;50.830;4.364;2024-03-07T09:08:02;84.38;;;41.72;;
23078;SDS011;11707;50.830;4.364;2024-03-07T09:10:32;80.63;;;38.95;;
23078;SDS011;11707;50.830;4.364;2024-03-07T09:12:58;73.03;;;38.85;;
23078;SDS011;11707;50.830;4.364;2024-03-07T09:15:24;78.82;;;40.65;;
23078;SDS011;11707;50.830;4.364;2024-03-07T09:17:50;88.30;;;44.33;;
23078;SDS011;11707;50.830;4.364;2024-03-07T09:20:16;80.47;;;40.83;;
23078;SDS011;11707;50.830;4.364;2024-03-07T09:22:42;88.65;;;42.35;;
23078;SDS011;11707;50.830;4.364;2024-03-07T09:25:13;78.18;;;40.15;;
23078;SDS011;11707;50.830;4.364;2024-03-07T09:27:41;77.65;;;40.78;;
23078;SDS011;11707;50.830;4.364;2024-03-07T09:30:08;73.95;;;39.13;;
23078;SDS011;11707;50.830;4.364;2024-03-07T09:32:40;77.57;;;39.30;;
23078;SDS011;11707;50.830;4.364;2024-03-07T09:35:09;94.20;;;41.15;;
23078;SDS011;11707;50.830;4.364;2024-03-07T09:37:40;76.25;;;40.00;;
23078;SDS011;11707;50.830;4.364;2024-03-07T09:40:09;71.32;;;37.67;;
23078;SDS011;11707;50.830;4.364;2024-03-07T09:42:42;67.70;;;36.67;;
23078;SDS011;11707;50.830;4.364;2024-03-07T09:45:17;67.47;;;38.00;;
23078;SDS011;11707;50.830;4.364;2024-03-07T09:47:48;74.93;;;38.50;;
23078;SDS011;11707;50.830;4.364;2024-03-07T09:50:16;65.85;;;38.30;;
23078;SDS011;11707;50.830;4.364;2024-03-07T09:52:49;68.70;;;38.97;;
23078;SDS011;11707;50.830;4.364;2024-03-07T09:55:22;65.15;;;37.97;;
23078;SDS011;11707;50.830;4.364;2024-03-07T09:57:51;67.43;;;37.90;;
23078;SDS011;11707;50.830;4.364;2024-03-07T10:00:20;69.85;;;39.15;;
23078;SDS011;11707;50.830;4.364;2024-03-07T10:05:30;66.65;;;37.63;;
23078;SDS011;11707;50.830;4.364;2024-03-07T10:07:56;73.22;;;39.05;;
23078;SDS011;11707;50.830;4.364;2024-03-07T10:10:27;73.85;;;40.58;;
23078;SDS011;11707;50.830;4.364;2024-03-07T10:12:53;63.03;;;38.03;;
23078;SDS011;11707;50.830;4.364;2024-03-07T10:15:19;67.45;;;37.85;;
23078;SDS011;11707;50.830;4.364;2024-03-07T10:17:45;64.68;;;37.05;;
23078;SDS011;11707;50.830;4.364;2024-03-07T10:20:14;60.10;;;37.35;;
23078;SDS011;11707;50.830;4.364;2024-03-07T10:22:45;61.38;;;34.25;;
23078;SDS011;11707;50.830;4.364;2024-03-07T10:25:11;62.55;;;38.75;;
23078;SDS011;11707;50.830;4.364;2024-03-07T10:27:37;62.75;;;37.17;;
23078;SDS011;11707;50.830;4.364;2024-03-07T10:30:03;66.57;;;38.60;;
23078;SDS011;11707;50.830;4.364;2024-03-07T10:32:32;58.78;;;37.08;;
23078;SDS011;11707;50.830;4.364;2024-03-07T10:34:58;60.15;;;33.92;;
23078;SDS011;11707;50.830;4.364;2024-03-07T10:37:24;59.90;;;35.90;;
23078;SDS011;11707;50.830;4.364;2024-03-07T10:39:51;67.15;;;37.47;;
23078;SDS011;11707;50.830;4.364;2024-03-07T10:42:17;63.28;;;37.28;;
23078;SDS011;11707;50.830;4.364;2024-03-07T10:44:47;69.30;;;37.42;;
23078;SDS011;11707;50.830;4.364;2024-03-07T10:47:16;64.40;;;37.58;;
23078;SDS011;11707;50.830;4.364;2024-03-07T10:49:48;62.42;;;36.85;;
23078;SDS011;11707;50.830;4.364;2024-03-07T10:55:40;51.33;;;32.95;;
23078;SDS011;11707;50.830;4.364;2024-03-07T11:01:01;54.28;;;34.30;;
23078;SDS011;11707;50.830;4.364;2024-03-07T11:03:34;58.97;;;33.88;;
23078;SDS011;11707;50.830;4.364;2024-03-07T11:06:00;56.92;;;35.03;;
23078;SDS011;11707;50.830;4.364;2024-03-07T11:08:32;53.30;;;34.85;;
23078;SDS011;11707;50.830;4.364;2024-03-07T11:10:59;54.10;;;36.58;;
23078;SDS011;11707;50.830;4.364;2024-03-07T11:13:26;49.53;;;32.75;;
23078;SDS011;11707;50.830;4.364;2024-03-07T11:15:53;49.03;;;32.75;;
23078;SDS011;11707;50.830;4.364;2024-03-07T11:18:23;53.78;;;31.10;;
23078;SDS011;11707;50.830;4.364;2024-03-07T11:20:49;43.28;;;30.67;;
23078;SDS011;11707;50.830;4.364;2024-03-07T11:26:09;49.28;;;30.30;;
23078;SDS011;11707;50.830;4.364;2024-03-07T11:28:41;45.88;;;29.98;;
23078;SDS011;11707;50.830;4.364;2024-03-07T11:31:08;43.63;;;28.40;;
23078;SDS011;11707;50.830;4.364;2024-03-07T11:36:55;55.35;;;31.70;;
23078;SDS011;11707;50.830;4.364;2024-03-07T11:42:27;40.78;;;28.38;;
23078;SDS011;11707;50.830;4.364;2024-03-07T11:44:58;41.28;;;28.00;;
23078;SDS011;11707;50.830;4.364;2024-03-07T11:47:25;40.97;;;27.77;;
23078;SDS011;11707;50.830;4.364;2024-03-07T11:50:00;40.70;;;28.50;;
23078;SDS011;11707;50.830;4.364;2024-03-07T11:52:27;41.78;;;27.77;;
23078;SDS011;11707;50.830;4.364;2024-03-07T11:54:53;40.00;;;28.70;;
23078;SDS011;11707;50.830;4.364;2024-03-07T11:57:22;40.28;;;27.05;;
23078;SDS011;11707;50.830;4.364;2024-03-07T11:59:58;40.25;;;27.05;;
23078;SDS011;11707;50.830;4.364;2024-03-07T12:02:26;40.03;;;26.52;;
23078;SDS011;11707;50.830;4.364;2024-03-07T12:04:53;35.72;;;24.63;;
23078;SDS011;11707;50.830;4.364;2024-03-07T12:07:21;36.10;;;24.40;;
23078;SDS011;11707;50.830;4.364;2024-03-07T12:09:48;34.70;;;23.65;;
23078;SDS011;11707;50.830;4.364;2024-03-07T12:12:21;35.67;;;23.80;;
23078;SDS011;11707;50.830;4.364;2024-03-07T12:14:48;36.95;;;24.75;;
23078;SDS011;11707;50.830;4.364;2024-03-07T12:17:17;33.00;;;23.88;;
23078;SDS011;11707;50.830;4.364;2024-03-07T12:19:47;32.78;;;22.30;;
23078;SDS011;11707;50.830;4.364;2024-03-07T12:22:18;36.88;;;24.13;;
23078;SDS011;11707;50.830;4.364;2024-03-07T12:24:47;34.58;;;23.67;;
23078;SDS011;11707;50.830;4.364;2024-03-07T12:27:24;34.03;;;22.80;;
23078;SDS011;11707;50.830;4.364;2024-03-07T12:29:50;33.10;;;22.02;;
23078;SDS011;11707;50.830;4.364;2024-03-07T12:32:17;31.60;;;21.02;;
23078;SDS011;11707;50.830;4.364;2024-03-07T12:34:43;30.52;;;22.02;;
23078;SDS011;11707;50.830;4.364;2024-03-07T12:37:12;34.50;;;22.83;;
23078;SDS011;11707;50.830;4.364;2024-03-07T12:39:44;29.15;;;21.85;;
23078;SDS011;11707;50.830;4.364;2024-03-07T12:42:17;37.72;;;22.98;;
23078;SDS011;11707;50.830;4.364;2024-03-07T12:44:45;34.38;;;23.00;;
23078;SDS011;11707;50.830;4.364;2024-03-07T12:47:15;36.97;;;23.08;;
23078;SDS011;11707;50.830;4.364;2024-03-07T12:49:44;34.65;;;24.13;;
23078;SDS011;11707;50.830;4.364;2024-03-07T12:52:12;32.17;;;22.85;;
23078;SDS011;11707;50.830;4.364;2024-03-07T12:54:40;32.83;;;24.02;;
23078;SDS011;11707;50.830;4.364;2024-03-07T12:57:06;35.22;;;24.40;;
23078;SDS011;11707;50.830;4.364;2024-03-07T12:59:34;34.08;;;24.48;;
23078;SDS011;11707;50.830;4.364;2024-03-07T13:02:04;33.53;;;22.38;;
23078;SDS011;11707;50.830;4.364;2024-03-07T13:04:31;28.83;;;22.10;;
23078;SDS011;11707;50.830;4.364;2024-03-07T13:06:57;35.10;;;23.83;;
23078;SDS011;11707;50.830;4.364;2024-03-07T13:09:27;31.08;;;22.83;;
23078;SDS011;11707;50.830;4.364;2024-03-07T13:11:55;39.05;;;23.77;;
23078;SDS011;11707;50.830;4.364;2024-03-07T13:14:22;33.35;;;24.40;;
23078;SDS011;11707;50.830;4.364;2024-03-07T13:16:48;40.05;;;24.33;;
23078;SDS011;11707;50.830;4.364;2024-03-07T13:19:15;35.97;;;23.58;;
23078;SDS011;11707;50.830;4.364;2024-03-07T13:21:46;37.45;;;26.52;;
23078;SDS011;11707;50.830;4.364;2024-03-07T13:24:14;35.95;;;24.70;;
23078;SDS011;11707;50.830;4.364;2024-03-07T13:26:40;45.58;;;26.00;;
23078;SDS011;11707;50.830;4.364;2024-03-07T13:29:07;35.83;;;25.98;;
23078;SDS011;11707;50.830;4.364;2024-03-07T13:31:35;33.80;;;23.90;;
23078;SDS011;11707;50.830;4.364;2024-03-07T13:34:01;35.53;;;22.52;;
23078;SDS011;11707;50.830;4.364;2024-03-07T13:36:27;32.88;;;22.33;;
23078;SDS011;11707;50.830;4.364;2024-03-07T13:38:55;31.08;;;22.52;;
23078;SDS011;11707;50.830;4.364;2024-03-07T13:41:23;33.10;;;22.63;;
23078;SDS011;11707;50.830;4.364;2024-03-07T13:43:50;27.00;;;20.95;;
23078;SDS011;11707;50.830;4.364;2024-03-07T13:46:16;28.75;;;21.17;;
23078;SDS011;11707;50.830;4.364;2024-03-07T13:48:43;33.05;;;21.40;;
23078;SDS011;11707;50.830;4.364;2024-03-07T13:51:09;33.33;;;22.08;;
23078;SDS011;11707;50.830;4.364;2024-03-07T13:53:40;29.05;;;21.55;;
23078;SDS011;11707;50.830;4.364;2024-03-07T14:01:41;28.77;;;22.33;;
23078;SDS011;11707;50.830;4.364;2024-03-07T14:22:02;33.90;;;22.20;;
23078;SDS011;11707;50.830;4.364;2024-03-07T14:27:27;27.40;;;20.38;;
23078;SDS011;11707;50.830;4.364;2024-03-07T14:32:49;26.48;;;18.45;;
23078;SDS011;11707;50.830;4.364;2024-03-07T14:35:23;33.25;;;19.92;;
23078;SDS011;11707;50.830;4.364;2024-03-07T14:38:22;28.77;;;18.27;;
23078;SDS011;11707;50.830;4.364;2024-03-07T14:40:52;24.20;;;18.45;;
23078;SDS011;11707;50.830;4.364;2024-03-07T14:43:18;24.05;;;17.52;;
23078;SDS011;11707;50.830;4.364;2024-03-07T14:45:47;33.33;;;18.33;;
23078;SDS011;11707;50.830;4.364;2024-03-07T14:48:13;28.48;;;19.50;;
23078;SDS011;11707;50.830;4.364;2024-03-07T14:50:46;31.42;;;20.15;;
23078;SDS011;11707;50.830;4.364;2024-03-07T14:53:14;27.25;;;18.30;;
23078;SDS011;11707;50.830;4.364;2024-03-07T14:55:43;26.08;;;17.77;;
23078;SDS011;11707;50.830;4.364;2024-03-07T14:58:09;27.25;;;18.75;;
23078;SDS011;11707;50.830;4.364;2024-03-07T15:00:38;23.85;;;17.67;;
23078;SDS011;11707;50.830;4.364;2024-03-07T15:03:07;21.23;;;16.33;;
23078;SDS011;11707;50.830;4.364;2024-03-07T15:05:35;28.15;;;17.55;;
23078;SDS011;11707;50.830;4.364;2024-03-07T15:08:01;29.23;;;18.77;;
23078;SDS011;11707;50.830;4.364;2024-03-07T15:10:29;26.02;;;16.77;;